CheckWX is a tool to help pilots better visualize weather data.  It is not intended as a substitute for an official pre-flight weather briefing.

21:37:44 UTC

SBBR TAF
Presidente Juscelino Kubistschek International Airport
Brasília, Brazil
TAF SBBR 201600Z 2018/2118 01010KT 9999 BKN035 FEW040TCU TX28/2018Z TN21/2109Z BECMG 2018/2020 27008KT TS SCT035 FEW040CB BECMG 2021/2023 20005KT NSW SCT035 BECMG 2100/2102 CAVOK BECMG 2107/2109 27005KT FEW028 BECMG 2115/2117 20010KT BKN035 FEW040TCU RMK PDL

Mar-20@
18:00 UTC

Mar-20 @ 18:00 UTC

Mar-21@
18:00 UTC

Mar-21 @ 18:00 UTC

TAF SBBR 201600Z 2018/2118 01010KT 9999 BKN035 FEW040TCU TX28/2018Z TN21/2109Z
Wind
  • 010° at 10 KTS
Cloud Levels
  • Broken at 3,500' AGL
  • Few at 4,000' AGL

Mar-20@
18:00 UTC

Mar-20 @ 18:00 UTC

Mar-20@
21:00 UTC

Mar-20 @ 21:00 UTC

BECMG 2018/2020 27008KT TS SCT035 FEW040CB

Expired

Wind
  • 270° at 8 KTS
Conditions
Thunderstorm
Cloud Levels
  • Scattered at 3,500' AGL
  • Few at 4,000' AGL

Mar-20@
21:00 UTC

Mar-20 @ 21:00 UTC

Mar-21@
00:00 UTC

Mar-21 @ 00:00 UTC

BECMG 2021/2023 20005KT NSW SCT035

Becoming

Becoming Conditions expected by Wed, Mar 20, 2019 @ 23:00 UTC

Wind
  • 200° at 5 KTS
Conditions
No significant weather
Cloud Levels
  • Scattered at 3,500' AGL

Mar-21@
00:00 UTC

Mar-21 @ 00:00 UTC

Mar-21@
07:00 UTC

Mar-21 @ 07:00 UTC

BECMG 2100/2102 CAVOK

Becoming

Becoming Conditions expected by Thu, Mar 21, 2019 @ 02:00 UTC

Wind
  • 200° at 5 KTS
Conditions
No significant weather
Cloud Levels
  • No significant clouds

Mar-21@
07:00 UTC

Mar-21 @ 07:00 UTC

Mar-21@
15:00 UTC

Mar-21 @ 15:00 UTC

BECMG 2107/2109 27005KT FEW028

Becoming

Becoming Conditions expected by Thu, Mar 21, 2019 @ 09:00 UTC

Wind
  • 270° at 5 KTS
Conditions
No significant weather
Cloud Levels
  • Few at 2,800' AGL

Mar-21@
15:00 UTC

Mar-21 @ 15:00 UTC

Mar-21@
18:00 UTC

Mar-21 @ 18:00 UTC

BECMG 2115/2117 20010KT BKN035 FEW040TCU RMK PDL

Becoming

Becoming Conditions expected by Thu, Mar 21, 2019 @ 17:00 UTC

Wind
  • 200° at 10 KTS
Conditions
No significant weather
Cloud Levels
  • Broken at 3,500' AGL
  • Few at 4,000' AGL